Flight Track Log - Related Links

Times and Time Zones

All times are in EDT time to prevent confusion due to time zone crossing. See the ASQ4233 flight status page for this flight to view local times or setup timezone preferences in your user account.

Time Position Orientation Groundspeed Altitude Reporting Facility
EDT Latitude Longitude Course Direction KTS MPH feet Rate Location/Type
Sun 02:16:00 PM 31.8547 -101.9306 111° Southeast  Level FlightAware Approximate
Sun 02:16:23 PM 31.8769 -102.0025 106° East 255 293 10,500  Level Fort Worth Center
Sun 02:17:00 PM 31.8251 -101.8419 111° Southeast  Level FlightAware Approximate
Sun 02:17:22 PM 31.8489 -101.9106 110° East 274 315 12,600  Level Fort Worth Center
Sun 02:18:00 PM 31.7939 -101.7540 113° Southeast  Level FlightAware Approximate
Sun 02:18:22 PM 31.8150 -101.8064 111° Southeast 305 351 14,100  Level Fort Worth Center
Sun 02:19:00 PM 31.7621 -101.6665 113° Southeast  Level FlightAware Approximate
Sun 02:19:23 PM 31.7792 -101.6947 111° Southeast 339 390 15,600  Level Fort Worth Center
Sun 02:20:00 PM 31.7400 -101.5933 106° East  Level FlightAware Approximate
Sun 02:20:23 PM 31.7414 -101.5758 110° East 368 423 17,200  Level Fort Worth Center
Sun 02:21:00 PM 31.7214 -101.5188 106° East  Level FlightAware Approximate
Sun 02:21:22 PM 31.7017 -101.4542 111° Southeast 383 441 18,600  Level Fort Worth Center
Sun 02:22:23 PM 31.6636 -101.3381 111° Southeast 383 441 20,300 1,700 Climbing Fort Worth Center
Sun 02:23:22 PM 31.6256 -101.2144 110° East 390 449 22,000 1,650 Climbing Fort Worth Center
Sun 02:24:23 PM 31.5833 -101.0931 112° Southeast 400 460 23,600 1,636 Climbing Fort Worth Center
Sun 02:25:23 PM 31.5450 -100.9672 110° East 400 460 25,300 1,700 Climbing Fort Worth Center
Sun 02:26:23 PM 31.5025 -100.8439 112° Southeast 405 466 27,000 1,600 Climbing Fort Worth Center
Sun 02:27:23 PM 31.4619 -100.7206 111° Southeast 405 466 28,500 667 Climbing Fort Worth Center
Sun 02:29:23 PM 31.3750 -100.4542 111° Southeast 442 509 29,000 165 Climbing Houston Center
Sun 02:30:25 PM 31.3272 -100.3117 111° Southeast 464 534 29,000  Level Houston Center
Sun 02:31:27 PM 31.2783 -100.1681 112° Southeast 471 542 29,000  Level Houston Center
Sun 02:32:29 PM 31.2294 -100.0264 112° Southeast 471 542 29,000 -48 Level Houston Center
Sun 02:33:31 PM 31.1706 -99.8567 112° Southeast 469 540 28,900  Descending Houston Center
Sun 02:34:33 PM 31.1217 -99.7139 112° Southeast 470 541 29,000 48 Climbing Houston Center
Sun 02:35:35 PM 31.0722 -99.5714 112° Southeast 473 544 29,000  Level Houston Center
Sun 02:36:37 PM 31.0217 -99.4278 112° Southeast 477 549 29,000  Level Houston Center
Sun 02:37:39 PM 30.9725 -99.2847 112° Southeast 475 547 29,000  Level Houston Center
Sun 02:38:41 PM 30.9192 -99.1339 112° Southeast 478 550 29,000  Level Houston Center
Sun 02:39:43 PM 30.8686 -98.9897 112° Southeast 477 549 29,000  Level Houston Center
Sun 02:40:45 PM 30.8094 -98.8211 112° Southeast 480 552 29,000  Level Houston Center
Sun 02:41:47 PM 30.8000 -98.6614 94° East 502 578 29,000  Level Houston Center
Sun 02:42:49 PM 30.8019 -98.5003 89° East 496 571 29,000  Level Houston Center
Sun 02:43:51 PM 30.8056 -98.3372 88° East 499 574 29,000  Level Houston Center
Sun 02:44:53 PM 30.8081 -98.1744 89° East 499 574 29,000  Level Houston Center
Sun 02:45:55 PM 30.8103 -98.0117 89° East 499 574 29,000  Level Houston Center
Sun 02:46:57 PM 30.8131 -97.8494 89° East 499 574 29,000  Level Houston Center
Sun 02:47:59 PM 30.8153 -97.6867 89° East 499 574 29,000  Level Houston Center
Sun 02:49:01 PM 30.8178 -97.4969 89° East 500 575 29,000  Level Houston Center
Sun 02:50:03 PM 30.8181 -97.3356 90° East 502 578 29,000  Level Houston Center
Sun 02:51:05 PM 30.8206 -97.1739 89° East 508 585 29,000  Level Houston Center
Sun 02:52:07 PM 30.8225 -97.0125 89° East 503 579 29,000 -912 Level Houston Center
Sun 02:53:10 PM 30.7767 -96.8381 107° East 479 551 27,100 -1,887 Descending Houston Center
Sun 02:54:11 PM 30.7281 -96.6911 111° Southeast 482 555 25,100 -1,902 Descending Houston Center
Sun 02:55:13 PM 30.6797 -96.5439 111° Southeast 483 556 23,200 -1,887 Descending Houston Center
Sun 02:56:15 PM 30.6350 -96.4011 110° East 471 542 21,200 -2,051 Descending Houston Center
Sun 02:57:10 PM 30.5886 -96.2692 112° Southeast 444 511 19,200 -2,032 Descending Houston Center
Sun 02:58:19 PM 30.5458 -96.1386 111° Southeast 426 490 17,000 -2,336 Descending Houston Center
Sun 02:59:21 PM 30.5031 -96.0167 112° Southeast 401 461 14,100 -3,300 Descending Houston Center
Sun 03:00:19 PM 30.4619 -95.8911 111° Southeast 360 414 10,400 -2,129 Descending Houston Center
Sun 03:01:25 PM 30.4128 -95.8267 131° Southeast 301 346 9,700 -1,125 Descending Houston Center
Sun 03:02:27 PM 30.3194 -95.7997 166° South 290 334 8,000 -911 Descending Houston Center
Sun 03:03:17 PM 30.2531 -95.7822 167° South 294 338 8,000 -703 Level Houston Center
Sun 03:04:18 PM 30.1839 -95.7347 149° Southeast 284 327 6,700 -971 Descending Houston Center
Sun 03:05:33 PM 30.1094 -95.6814 148° Southeast 276 318 5,800 -836 Descending Houston Center
Sun 03:06:20 PM 30.0517 -95.6417 149° Southeast 268 308 5,000 -871 Descending Houston Center
Sun 03:06:35 PM 30.0444 -95.6361 146° Southeast 273 314 4,900 -1,013 Descending Houston Center
Sun 03:07:37 PM 29.9975 -95.5750 132° Southeast 266 306 3,700 -1,113 Descending Houston Center
Sun 03:08:39 PM 29.9936 -95.5042 94° East 236 272 2,600 -1,065 Descending Houston Center

Login

Don't have an account? Register now (free) for customized features, flight alerts, and more!